Time;durP1;ratioP1;P1;durP2;ratioP2;P2;SDS_P1;SDS_P2;PMS_P1;PMS_P2;Temp;Humidity;BMP_temperature;BMP_pressure;BME280_temperature;BME280_humidity;BME280_pressure;Samples;Min_cycle;Max_cycle;Signal;HPM_P1;HPM_P2
2021/09/26 00:01:58;;;;;;;8.70;4.37;;;;;;;14.52;100.00;101322.53;5035737;28;20485;-72
2021/09/26 00:04:24;;;;;;;9.63;5.33;;;;;;;14.46;100.00;101324.53;5036060;28;20451;-72
2021/09/26 00:06:51;;;;;;;7.63;5.07;;;;;;;14.50;100.00;101322.03;5035872;28;20478;-71
2021/09/26 00:09:17;;;;;;;8.80;5.87;;;;;;;14.52;100.00;101319.81;5035995;28;20443;-72
2021/09/26 00:11:45;;;;;;;10.37;4.83;;;;;;;14.52;100.00;101323.38;5035854;28;20470;-71
2021/09/26 00:14:12;;;;;;;9.43;4.60;;;;;;;14.45;100.00;101319.41;5035540;28;20463;-71
2021/09/26 00:16:38;;;;;;;9.07;5.67;;;;;;;14.49;100.00;101325.91;5035520;28;20959;-71
2021/09/26 00:19:05;;;;;;;7.50;5.30;;;;;;;14.52;100.00;101322.53;5035774;28;20505;-71
2021/09/26 00:21:32;;;;;;;9.43;5.77;;;;;;;14.54;100.00;101329.28;5035413;28;20478;-71
2021/09/26 00:24:00;;;;;;;8.27;5.20;;;;;;;14.52;100.00;101323.38;5035743;28;20454;-71
2021/09/26 00:26:26;;;;;;;7.73;4.60;;;;;;;14.52;100.00;101322.53;5035827;28;20478;-71
2021/09/26 00:28:54;;;;;;;7.73;5.73;;;;;;;14.50;100.00;101317.41;5035710;28;20450;-72
2021/09/26 00:31:21;;;;;;;4.77;4.00;;;;;;;14.43;100.00;101319.72;5035493;28;20463;-72
2021/09/26 00:33:47;;;;;;;7.60;4.93;;;;;;;14.40;100.00;101323.06;5035589;28;20447;-70
2021/09/26 00:36:14;;;;;;;5.90;4.67;;;;;;;14.31;100.00;101316.75;5035506;28;20435;-71
2021/09/26 00:38:40;;;;;;;10.73;5.63;;;;;;;14.29;100.00;101318.94;5035527;28;20439;-71
2021/09/26 00:41:07;;;;;;;8.60;4.50;;;;;;;14.28;100.00;101318.16;5035452;28;20471;-71
2021/09/26 00:43:35;;;;;;;6.70;5.23;;;;;;;14.36;100.00;101319.34;5035339;28;20453;-71
2021/09/26 00:46:05;;;;;;;7.03;5.03;;;;;;;14.41;100.00;101323.88;5035312;28;20899;-71
2021/09/26 00:48:31;;;;;;;10.17;4.83;;;;;;;14.46;100.00;101327.28;5035273;28;20455;-71
2021/09/26 00:50:58;;;;;;;9.10;4.87;;;;;;;14.56;100.00;101329.78;5034877;28;20995;-71
2021/09/26 00:53:25;;;;;;;7.23;3.97;;;;;;;14.59;100.00;101325.63;5035228;28;20471;-71
2021/09/26 00:55:56;;;;;;;6.83;4.60;;;;;;;14.62;100.00;101333.22;5034016;28;20463;-70
2021/09/26 00:58:22;;;;;;;7.23;4.70;;;;;;;14.66;100.00;101328.75;5035253;28;20881;-72
2021/09/26 01:00:48;;;;;;;7.67;4.50;;;;;;;14.68;100.00;101326.50;5034656;28;20467;-70
2021/09/26 01:03:16;;;;;;;8.73;5.10;;;;;;;14.68;100.00;101323.78;5034909;28;20444;-71
2021/09/26 01:05:45;;;;;;;7.97;4.83;;;;;;;14.69;100.00;101325.38;5034867;28;20502;-71
2021/09/26 01:08:20;;;;;;;6.83;4.70;;;;;;;14.70;100.00;101320.72;5034914;28;20442;-71
2021/09/26 01:10:57;;;;;;;8.10;5.47;;;;;;;14.76;100.00;101314.84;5035025;28;20482;-72
2021/09/26 01:13:30;;;;;;;9.80;6.20;;;;;;;14.77;100.00;101318.38;5034896;28;20796;-71
2021/09/26 01:16:13;;;;;;;7.73;5.17;;;;;;;14.77;100.00;101319.19;5034800;28;20424;-70
2021/09/26 01:18:54;;;;;;;7.43;4.40;;;;;;;14.74;100.00;101327.19;5034755;28;20850;-71
2021/09/26 01:21:28;;;;;;;11.43;5.00;;;;;;;14.69;100.00;101327.31;5034346;28;20485;-71
2021/09/26 01:24:30;;;;;;;12.47;6.60;;;;;;;14.57;100.00;101330.63;5034668;28;20801;-70
2021/09/26 01:27:13;;;;;;;7.93;5.73;;;;;;;14.50;100.00;101320.13;5034192;28;21026;-71
2021/09/26 01:30:16;;;;;;;9.33;5.13;;;;;;;14.44;100.00;101321.34;5034705;28;20861;-71
2021/09/26 01:32:53;;;;;;;7.50;5.10;;;;;;;14.47;100.00;101325.34;5034486;28;20463;-71
2021/09/26 01:35:22;;;;;;;6.20;3.80;;;;;;;14.51;100.00;101329.09;5034431;28;20515;-71
2021/09/26 01:37:59;;;;;;;8.43;5.70;;;;;;;14.42;100.00;101322.75;5034078;28;20897;-72
2021/09/26 01:40:31;;;;;;;9.67;5.30;;;;;;;14.39;100.00;101326.91;5033903;28;20987;-71
2021/09/26 01:43:03;;;;;;;7.03;4.70;;;;;;;14.45;100.00;101333.84;5034288;28;20442;-70
2021/09/26 01:45:33;;;;;;;9.87;5.27;;;;;;;14.47;100.00;101328.88;5034147;28;20438;-71
2021/09/26 01:48:07;;;;;;;9.37;5.07;;;;;;;14.50;100.00;101331.03;5033919;28;20803;-71
2021/09/26 01:50:35;;;;;;;8.97;5.00;;;;;;;14.55;100.00;101327.38;5034062;28;20466;-71
2021/09/26 01:53:03;;;;;;;7.57;4.50;;;;;;;14.55;100.00;101325.44;5033997;28;20452;-70
2021/09/26 01:55:30;;;;;;;8.17;4.83;;;;;;;14.60;100.00;101327.25;5033700;28;20458;-70
2021/09/26 01:57:59;;;;;;;12.33;5.50;;;;;;;14.62;100.00;101325.03;5033428;28;20459;-71
2021/09/26 02:00:26;;;;;;;10.43;4.43;;;;;;;14.65;100.00;101327.13;5033942;28;20513;-70
2021/09/26 02:02:54;;;;;;;9.97;5.80;;;;;;;14.69;100.00;101330.03;5033898;28;20549;-70
2021/09/26 02:05:22;;;;;;;8.10;6.03;;;;;;;14.68;100.00;101337.41;5033737;28;20787;-71
2021/09/26 02:07:51;;;;;;;7.93;4.40;;;;;;;14.71;100.00;101336.81;5033777;28;20454;-72
2021/09/26 02:10:21;;;;;;;12.30;5.37;;;;;;;14.72;100.00;101337.59;5033679;28;20467;-71
2021/09/26 02:12:48;;;;;;;9.10;4.47;;;;;;;14.76;100.00;101339.41;5033717;28;20542;-69
2021/09/26 02:15:18;;;;;;;12.23;5.87;;;;;;;14.80;100.00;101339.59;5033243;28;20467;-71
2021/09/26 02:17:46;;;;;;;8.17;4.30;;;;;;;14.77;100.00;101338.28;5033948;28;20454;-71
2021/09/26 02:20:15;;;;;;;10.07;5.83;;;;;;;14.73;100.00;101341.94;5033318;28;20451;-70
2021/09/26 02:22:44;;;;;;;10.60;5.57;;;;;;;14.73;100.00;101339.22;5033545;28;20431;-72
2021/09/26 02:25:13;;;;;;;7.23;5.23;;;;;;;14.68;100.00;101342.06;5033521;28;20439;-71
2021/09/26 02:27:41;;;;;;;8.23;5.33;;;;;;;14.71;100.00;101333.28;5033390;28;20505;-71
2021/09/26 02:30:10;;;;;;;8.60;4.90;;;;;;;14.75;100.00;101332.34;5033039;28;20946;-71
2021/09/26 02:32:36;;;;;;;14.17;6.23;;;;;;;14.75;100.00;101337.00;5033477;28;20447;-72
2021/09/26 02:35:03;;;;;;;7.93;4.93;;;;;;;14.84;100.00;101346.84;5033414;28;20515;-72
2021/09/26 02:37:30;;;;;;;9.20;5.20;;;;;;;14.91;100.00;101345.59;5033409;28;20443;-72
2021/09/26 02:39:57;;;;;;;9.67;5.60;;;;;;;14.96;100.00;101334.53;5033237;28;20443;-72
2021/09/26 02:42:31;;;;;;;7.37;5.07;;;;;;;14.99;100.00;101337.47;5033681;28;20451;-71
2021/09/26 02:45:04;;;;;;;9.10;4.83;;;;;;;15.02;100.00;101331.38;5033272;28;20428;-71
2021/09/26 02:47:37;;;;;;;8.77;6.33;;;;;;;15.04;100.00;101340.03;5033173;28;20836;-72
2021/09/26 02:50:04;;;;;;;10.00;5.40;;;;;;;15.05;100.00;101335.38;5033200;28;20431;-72
2021/09/26 02:52:31;;;;;;;12.63;5.30;;;;;;;15.10;100.00;101338.81;5033165;28;20451;-72
2021/09/26 02:55:00;;;;;;;9.63;6.33;;;;;;;15.16;100.00;101334.03;5033242;28;20465;-71
2021/09/26 02:57:27;;;;;;;11.57;6.27;;;;;;;15.20;100.00;101334.22;5033151;28;20447;-72
2021/09/26 02:59:53;;;;;;;7.60;4.57;;;;;;;15.22;100.00;101340.13;5033077;28;20458;-72
2021/09/26 03:02:27;;;;;;;12.40;6.23;;;;;;;15.25;100.00;101334.06;5033101;28;20455;-71
2021/09/26 03:04:54;;;;;;;7.67;5.23;;;;;;;15.28;100.00;101330.72;5033051;28;20423;-71
2021/09/26 03:07:20;;;;;;;8.17;5.33;;;;;;;15.27;100.00;101334.53;5033032;28;20485;-73
2021/09/26 03:09:47;;;;;;;7.10;5.00;;;;;;;15.31;100.00;101333.59;5032974;28;20470;-72
2021/09/26 03:12:17;;;;;;;12.70;5.90;;;;;;;15.37;100.00;101331.56;5032891;28;20467;-73
2021/09/26 03:14:43;;;;;;;7.67;4.87;;;;;;;15.41;100.00;101334.47;5032970;28;20432;-72
2021/09/26 03:17:10;;;;;;;6.37;4.70;;;;;;;15.45;100.00;101332.69;5032724;28;20963;-72
2021/09/26 03:19:37;;;;;;;7.63;5.43;;;;;;;15.42;100.00;101328.69;5034670;28;20455;-72
2021/09/26 03:22:04;;;;;;;11.17;5.50;;;;;;;15.37;100.00;101324.16;5036524;28;20471;-72
2021/09/26 03:24:32;;;;;;;11.30;5.87;;;;;;;15.42;100.00;101319.69;5036854;28;20439;-72
2021/09/26 03:27:02;;;;;;;6.73;4.83;;;;;;;15.42;100.00;101322.41;5036123;28;20487;-72
2021/09/26 03:29:32;;;;;;;8.17;5.47;;;;;;;15.38;100.00;101327.69;5037268;28;20446;-73
2021/09/26 03:31:59;;;;;;;10.50;4.93;;;;;;;15.41;100.00;101320.81;5036691;28;20478;-72
2021/09/26 03:34:25;;;;;;;11.10;6.13;;;;;;;15.39;100.00;101319.19;5036661;28;20450;-69
2021/09/26 03:36:52;;;;;;;8.57;5.07;;;;;;;15.43;100.00;101324.03;5036635;28;20439;-70
2021/09/26 03:39:18;;;;;;;12.10;7.23;;;;;;;15.47;100.00;101323.06;5036621;28;20454;-70
2021/09/26 03:41:44;;;;;;;11.60;5.70;;;;;;;15.47;100.00;101325.00;5036452;28;20478;-71
2021/09/26 03:44:11;;;;;;;11.30;6.10;;;;;;;15.53;100.00;101326.47;5036151;28;20979;-69
2021/09/26 03:46:39;;;;;;;8.77;5.80;;;;;;;15.60;100.00;101329.56;5036397;28;20497;-70
2021/09/26 03:49:06;;;;;;;12.20;7.43;;;;;;;15.63;100.00;101323.47;5036460;28;20451;-70
2021/09/26 03:51:33;;;;;;;10.67;6.20;;;;;;;15.67;100.00;101324.47;5036300;28;20467;-70
2021/09/26 03:53:59;;;;;;;10.30;5.77;;;;;;;15.70;100.00;101321.09;5036322;28;20451;-69
2021/09/26 03:56:26;;;;;;;14.13;7.77;;;;;;;15.70;100.00;101317.56;5036264;28;20431;-70
2021/09/26 03:58:53;;;;;;;10.93;5.87;;;;;;;15.73;100.00;101323.19;5036228;28;20870;-71
2021/09/26 04:01:19;;;;;;;10.40;6.30;;;;;;;15.76;100.00;101313.53;5036107;28;20467;-70
2021/09/26 04:03:47;;;;;;;7.70;5.23;;;;;;;15.81;100.00;101321.63;5035838;28;20819;-71
2021/09/26 04:06:13;;;;;;;9.03;5.23;;;;;;;15.84;100.00;101324.50;5036214;28;20493;-68
2021/09/26 04:08:40;;;;;;;11.80;6.40;;;;;;;15.86;100.00;101322.25;5036205;28;20443;-68
2021/09/26 04:11:08;;;;;;;11.37;6.33;;;;;;;15.86;100.00;101332.38;5035969;28;20478;-68
2021/09/26 04:13:34;;;;;;;11.47;6.60;;;;;;;15.92;100.00;101335.75;5035841;28;20948;-72
2021/09/26 04:16:01;;;;;;;11.37;7.43;;;;;;;15.93;100.00;101332.69;5035884;28;20443;-71
2021/09/26 04:18:27;;;;;;;10.30;6.03;;;;;;;15.93;100.00;101329.16;5035844;28;20454;-71
2021/09/26 04:20:55;;;;;;;8.63;5.70;;;;;;;15.93;100.00;101326.44;5035305;28;20486;-72
2021/09/26 04:23:21;;;;;;;11.93;6.37;;;;;;;15.95;100.00;101329.66;5035800;28;20439;-71
2021/09/26 04:25:48;;;;;;;9.33;6.43;;;;;;;15.98;100.00;101323.53;5035621;28;20451;-71
2021/09/26 04:28:14;;;;;;;12.10;7.77;;;;;;;15.96;100.00;101323.88;5035657;28;20478;-71
2021/09/26 04:30:41;;;;;;;13.30;7.00;;;;;;;15.94;100.00;101317.09;5034107;28;20950;-72
2021/09/26 04:33:08;;;;;;;9.37;6.40;;;;;;;15.88;100.00;101317.25;5035643;28;20450;-71
2021/09/26 04:35:34;;;;;;;16.47;7.63;;;;;;;15.85;100.00;101323.38;5035535;28;20450;-73
2021/09/26 04:38:02;;;;;;;10.57;6.47;;;;;;;15.83;100.00;101320.16;5035321;28;20442;-71
2021/09/26 04:40:28;;;;;;;15.73;7.90;;;;;;;15.79;100.00;101327.38;5035423;28;20474;-73
2021/09/26 04:42:55;;;;;;;11.90;6.80;;;;;;;15.80;100.00;101328.97;5035489;28;20449;-71
2021/09/26 04:45:21;;;;;;;11.43;6.70;;;;;;;15.79;100.00;101321.91;5035071;28;20959;-73
2021/09/26 04:47:48;;;;;;;13.33;6.87;;;;;;;15.80;100.00;101323.50;5035223;28;20479;-71
2021/09/26 04:50:14;;;;;;;12.43;7.20;;;;;;;15.86;100.00;101329.66;5035244;28;20466;-70
2021/09/26 04:52:41;;;;;;;13.10;6.47;;;;;;;15.87;100.00;101318.41;5035274;28;20443;-69
2021/09/26 04:55:10;;;;;;;14.20;6.97;;;;;;;15.91;100.00;101324.03;5034871;28;20933;-70
2021/09/26 04:57:36;;;;;;;11.53;6.60;;;;;;;15.92;100.00;101320.16;5034947;28;20938;-70
2021/09/26 05:00:04;;;;;;;12.30;6.07;;;;;;;15.93;100.00;101320.97;5035318;28;20450;-70
2021/09/26 05:02:31;;;;;;;11.87;6.33;;;;;;;15.96;100.00;101323.88;5035067;28;20435;-70
2021/09/26 05:04:57;;;;;;;15.37;7.83;;;;;;;15.95;100.00;101319.53;5034999;28;20481;-70
2021/09/26 05:07:24;;;;;;;12.70;7.10;;;;;;;15.96;100.00;101328.53;5034907;28;20506;-70
2021/09/26 05:09:50;;;;;;;11.40;6.93;;;;;;;16.01;100.00;101331.13;5034972;28;20448;-71
2021/09/26 05:12:18;;;;;;;15.60;7.20;;;;;;;16.02;100.00;101324.53;5034842;28;20459;-72
2021/09/26 05:14:51;;;;;;;11.60;6.67;;;;;;;16.04;100.00;101335.94;5034534;28;20944;-72
2021/09/26 05:17:18;;;;;;;9.23;6.23;;;;;;;16.07;100.00;101329.81;5034811;28;20536;-72
2021/09/26 05:19:46;;;;;;;11.63;7.10;;;;;;;16.12;100.00;101337.91;5034620;28;20447;-72
2021/09/26 05:22:13;;;;;;;11.30;7.17;;;;;;;16.14;100.00;101341.09;5043513;22;20517;-82
2021/09/26 05:24:39;;;;;;;12.07;6.97;;;;;;;16.17;100.00;101335.00;5035293;28;20510;-82
2021/09/26 05:27:06;;;;;;;11.17;7.00;;;;;;;16.15;100.00;101334.50;5034931;28;21007;-81
2021/09/26 05:29:34;;;;;;;17.73;8.10;;;;;;;16.15;100.00;101339.97;5035143;28;20440;-82
2021/09/26 05:32:00;;;;;;;14.40;7.07;;;;;;;16.16;100.00;101341.59;5034982;28;20489;-82
2021/09/26 05:34:29;;;;;;;13.70;7.67;;;;;;;16.21;100.00;101330.50;5035354;28;20857;-82
2021/09/26 05:36:56;;;;;;;13.40;7.50;;;;;;;16.23;100.00;101330.19;5036128;28;20953;-82
2021/09/26 05:39:25;;;;;;;13.03;7.17;;;;;;;16.26;100.00;101337.75;5036371;28;20435;-82
2021/09/26 05:41:51;;;;;;;16.40;6.90;;;;;;;16.27;100.00;101333.88;5036342;28;20447;-82
2021/09/26 05:44:18;;;;;;;13.97;7.60;;;;;;;16.26;100.00;101324.88;5036692;28;20447;-82
2021/09/26 05:46:46;;;;;;;13.43;7.30;;;;;;;16.28;100.00;101322.63;5036117;28;20451;-81
2021/09/26 05:49:13;;;;;;;12.90;7.17;;;;;;;16.27;100.00;101325.69;5036084;28;20435;-81
2021/09/26 05:51:40;;;;;;;12.10;6.67;;;;;;;16.26;100.00;101333.09;5036650;28;20443;-81
2021/09/26 05:54:06;;;;;;;11.20;6.10;;;;;;;16.24;100.00;101324.38;5038271;28;20427;-81
2021/09/26 05:56:33;;;;;;;12.27;6.90;;;;;;;16.24;100.00;101331.78;5035480;28;20447;-82
2021/09/26 05:58:59;;;;;;;11.90;7.27;;;;;;;16.27;100.00;101336.63;5035840;28;20790;-81
2021/09/26 06:01:26;;;;;;;9.73;6.73;;;;;;;16.30;100.00;101328.59;5036003;28;20447;-81
2021/09/26 06:03:54;;;;;;;14.83;7.77;;;;;;;16.34;100.00;101326.00;5035890;28;20447;-81
2021/09/26 06:06:20;;;;;;;10.07;6.30;;;;;;;16.37;100.00;101330.81;5035849;28;20474;-81
2021/09/26 06:08:47;;;;;;;16.07;7.10;;;;;;;16.40;100.00;101336.47;5035144;28;20942;-81
2021/09/26 06:11:14;;;;;;;13.57;8.10;;;;;;;16.47;100.00;101337.88;5035484;28;20455;-82
2021/09/26 06:13:40;;;;;;;9.97;6.20;;;;;;;16.53;100.00;101333.88;5035467;28;20804;-81
2021/09/26 06:16:07;;;;;;;11.30;6.50;;;;;;;16.58;100.00;101336.44;5037457;28;20815;-81
2021/09/26 06:18:33;;;;;;;11.90;6.30;;;;;;;16.62;100.00;101332.75;5035874;28;20443;-81
2021/09/26 06:21:01;;;;;;;12.20;5.70;;;;;;;16.64;100.00;101332.41;5035242;28;20448;-81
2021/09/26 06:23:28;;;;;;;9.30;5.43;;;;;;;16.64;100.00;101325.03;5035484;28;20454;-81
2021/09/26 06:25:55;;;;;;;12.80;6.37;;;;;;;16.67;100.00;101322.75;5035279;28;20467;-81
2021/09/26 06:28:21;;;;;;;10.33;6.77;;;;;;;16.64;100.00;101327.78;5035501;28;20502;-81
2021/09/26 06:30:48;;;;;;;12.40;8.00;;;;;;;16.68;100.00;101329.84;5035556;28;20439;-82
2021/09/26 06:33:14;;;;;;;14.53;7.17;;;;;;;16.70;100.00;101322.94;5036091;28;20443;-82
2021/09/26 06:35:41;;;;;;;14.10;7.13;;;;;;;16.71;100.00;101329.19;5036572;28;20463;-83
2021/09/26 06:38:09;;;;;;;11.70;6.77;;;;;;;16.76;100.00;101334.53;5036855;28;20447;-82
2021/09/26 06:40:35;;;;;;;11.10;5.40;;;;;;;16.81;100.00;101329.69;5035976;28;20952;-82
2021/09/26 06:43:02;;;;;;;10.43;5.67;;;;;;;16.81;100.00;101335.16;5036188;28;20431;-82
2021/09/26 06:45:29;;;;;;;13.00;6.13;;;;;;;16.87;100.00;101336.63;5036801;28;20494;-83
2021/09/26 06:47:57;;;;;;;10.10;6.13;;;;;;;16.91;100.00;101328.56;5036416;28;20540;-82
2021/09/26 06:50:23;;;;;;;11.13;6.77;;;;;;;16.97;100.00;101329.97;5037959;28;20504;-82
2021/09/26 06:52:50;;;;;;;12.20;6.43;;;;;;;17.03;100.00;101330.59;5037514;28;20438;-81
2021/09/26 06:55:18;;;;;;;12.03;6.30;;;;;;;17.06;100.00;101327.22;5035238;28;20471;-81
2021/09/26 06:57:44;;;;;;;14.30;5.90;;;;;;;17.08;100.00;101327.69;5034839;28;20435;-81
2021/09/26 07:00:11;;;;;;;8.13;5.20;;;;;;;17.09;100.00;101324.66;5035488;28;20442;-82
2021/09/26 07:02:38;;;;;;;17.53;7.53;;;;;;;17.09;100.00;101332.06;5035270;28;20443;-81
2021/09/26 07:05:05;;;;;;;16.90;7.10;;;;;;;17.12;100.00;101328.66;5035929;28;20474;-82
2021/09/26 07:07:36;;;;;;;15.60;7.47;;;;;;;17.22;100.00;101332.97;5035694;28;20489;-81
2021/09/26 07:10:05;;;;;;;13.30;7.50;;;;;;;17.28;100.00;101335.19;5035286;28;20451;-82
2021/09/26 07:12:33;;;;;;;9.30;5.97;;;;;;;17.35;100.00;101331.94;5035241;28;20463;-82
2021/09/26 07:15:01;;;;;;;11.37;7.07;;;;;;;17.38;100.00;101331.28;5034967;28;20474;-79
2021/09/26 07:17:29;;;;;;;9.87;6.00;;;;;;;17.48;100.00;101341.06;5035510;28;20455;-80
2021/09/26 07:19:55;;;;;;;11.37;5.73;;;;;;;17.52;100.00;101336.56;5035136;28;20443;-79
2021/09/26 07:22:24;;;;;;;9.20;5.73;;;;;;;17.52;100.00;101344.75;5034883;28;20458;-79
2021/09/26 07:24:51;;;;;;;10.83;6.07;;;;;;;17.50;100.00;101345.09;5035374;28;20467;-79
2021/09/26 07:27:19;;;;;;;11.30;6.63;;;;;;;17.56;100.00;101349.25;5035356;28;20819;-79
2021/09/26 07:29:47;;;;;;;9.33;6.33;;;;;;;17.63;100.00;101341.34;5035702;28;20869;-79
2021/09/26 07:32:14;;;;;;;9.43;5.00;;;;;;;17.71;100.00;101342.44;5035015;28;20451;-79
2021/09/26 07:34:41;;;;;;;11.10;6.37;;;;;;;17.77;100.00;101343.88;5035022;28;20478;-80
2021/09/26 07:37:08;;;;;;;9.97;6.70;;;;;;;17.83;100.00;101339.78;5035349;28;20447;-79
2021/09/26 07:39:37;;;;;;;9.20;6.37;;;;;;;17.90;100.00;101336.53;5035111;28;20948;-80
2021/09/26 07:42:04;;;;;;;10.00;5.80;;;;;;;17.96;100.00;101339.88;5034572;28;20435;-79
2021/09/26 07:44:31;;;;;;;14.43;7.40;;;;;;;18.03;100.00;101345.66;5035007;28;20467;-80
2021/09/26 07:46:59;;;;;;;14.57;6.83;;;;;;;18.08;100.00;101349.00;5035056;28;20431;-79
2021/09/26 07:49:25;;;;;;;6.67;4.90;;;;;;;18.11;100.00;101340.13;5035053;28;20491;-79
2021/09/26 07:51:52;;;;;;;8.07;5.10;;;;;;;18.17;100.00;101339.91;5034891;28;20439;-79
2021/09/26 07:54:18;;;;;;;9.30;5.77;;;;;;;18.19;100.00;101338.44;5034398;28;20434;-78
2021/09/26 07:56:45;;;;;;;6.97;4.57;;;;;;;18.25;100.00;101337.09;5036268;28;20450;-81
2021/09/26 07:59:12;;;;;;;8.97;5.70;;;;;;;18.25;100.00;101331.63;5037592;28;20447;-81
2021/09/26 08:01:38;;;;;;;8.03;5.97;;;;;;;18.33;100.00;101349.16;5037722;28;20450;-82
2021/09/26 08:04:08;;;;;;;7.37;4.60;;;;;;;18.43;100.00;101342.47;5038861;28;20439;-82
2021/09/26 08:06:34;;;;;;;10.20;5.47;;;;;;;18.47;100.00;101349.69;5041754;28;20443;-82
2021/09/26 08:09:01;;;;;;;11.43;5.00;;;;;;;18.50;100.00;101350.94;5041258;28;21006;-82
2021/09/26 08:11:27;;;;;;;7.43;4.73;;;;;;;18.59;100.00;101341.50;5042954;28;20980;-81
2021/09/26 08:13:54;;;;;;;7.37;5.27;;;;;;;18.65;100.00;101344.84;5041949;28;20462;-82
2021/09/26 08:16:20;;;;;;;7.13;5.20;;;;;;;18.69;99.83;101336.75;5038808;28;20467;-81
2021/09/26 08:18:47;;;;;;;9.80;5.50;;;;;;;18.74;99.34;101337.34;5039106;28;20450;-81
2021/09/26 08:21:15;;;;;;;9.50;5.70;;;;;;;18.78;98.46;101332.00;5038407;28;20464;-81
2021/09/26 08:23:41;;;;;;;7.77;5.17;;;;;;;18.83;98.96;101334.53;5038493;28;20446;-83
2021/09/26 08:26:08;;;;;;;7.10;5.10;;;;;;;18.93;98.05;101333.28;5037780;28;20913;-83
2021/09/26 08:28:35;;;;;;;7.10;5.10;;;;;;;18.98;97.03;101328.38;5037930;28;20486;-85
2021/09/26 08:31:01;;;;;;;7.83;4.40;;;;;;;19.11;96.25;101335.50;5038099;28;20454;-81
2021/09/26 08:33:28;;;;;;;8.93;4.70;;;;;;;19.17;95.93;101344.34;5039199;28;20443;-81
2021/09/26 08:35:55;;;;;;;10.23;6.00;;;;;;;19.30;94.76;101342.41;5038834;28;21007;-83
2021/09/26 08:38:22;;;;;;;6.07;4.50;;;;;;;19.37;94.37;101332.44;5038757;28;20518;-84
2021/09/26 08:40:50;;;;;;;10.87;5.23;;;;;;;19.45;94.68;101340.94;5039040;28;20439;-83
2021/09/26 08:43:18;;;;;;;6.03;4.57;;;;;;;19.50;94.60;101347.00;5039948;28;20443;-83
2021/09/26 08:45:45;;;;;;;7.50;4.67;;;;;;;19.60;94.10;101332.81;5038626;28;20447;-84
2021/09/26 08:48:12;;;;;;;7.30;4.30;;;;;;;19.66;93.82;101327.91;5038542;28;20837;-83
2021/09/26 08:50:39;;;;;;;7.10;4.40;;;;;;;19.75;93.56;101336.06;5041976;28;20436;-82
2021/09/26 08:53:07;;;;;;;5.90;3.97;;;;;;;19.82;92.97;101326.06;5036788;28;20439;-82
2021/09/26 08:55:36;;;;;;;5.30;3.60;;;;;;;19.89;92.07;101326.28;5036322;28;20981;-81
2021/09/26 08:58:03;;;;;;;7.60;4.30;;;;;;;19.90;91.46;101327.09;5036109;28;20446;-80
2021/09/26 09:00:30;;;;;;;6.93;4.30;;;;;;;19.95;90.77;101321.34;5035791;28;20443;-80
2021/09/26 09:02:58;;;;;;;5.77;4.27;;;;;;;20.07;89.98;101329.56;5035423;28;20449;-80
2021/09/26 09:05:32;;;;;;;6.50;4.20;;;;;;;20.16;89.84;101333.00;5035856;28;20550;-82
2021/09/26 09:08:10;;;;;;;4.23;3.77;;;;;;;20.26;89.09;101328.94;5035868;28;20507;-83
2021/09/26 09:10:45;;;;;;;6.77;4.30;;;;;;;20.35;88.75;101323.31;5037457;28;20438;-83
2021/09/26 09:13:13;;;;;;;6.43;4.03;;;;;;;20.45;87.78;101333.00;5037672;28;20447;-80
2021/09/26 09:15:41;;;;;;;5.70;3.90;;;;;;;20.54;87.79;101329.00;5037283;28;20465;-80
2021/09/26 09:18:08;;;;;;;5.53;4.20;;;;;;;20.61;88.13;101331.16;5038227;28;20724;-81
2021/09/26 09:20:35;;;;;;;7.17;3.87;;;;;;;20.69;87.78;101330.19;5037514;28;20461;-80
2021/09/26 09:23:15;;;;;;;4.90;4.07;;;;;;;20.65;85.76;101332.84;5037402;28;20423;-80
2021/09/26 09:25:45;;;;;;;4.53;3.40;;;;;;;20.73;85.36;101328.34;5037360;28;20557;-81
2021/09/26 09:28:14;;;;;;;6.87;4.07;;;;;;;20.84;84.42;101326.66;5037230;28;20824;-80
2021/09/26 09:30:42;;;;;;;3.97;3.40;;;;;;;20.95;82.23;101329.72;5037604;28;20443;-81
2021/09/26 09:33:11;;;;;;;4.10;3.70;;;;;;;21.04;82.50;101324.03;5038808;28;20534;-80
2021/09/26 09:35:44;;;;;;;6.47;3.73;;;;;;;21.15;82.45;101320.38;5042680;22;20559;-66
2021/09/26 09:38:12;;;;;;;5.63;4.37;;;;;;;21.22;82.21;101319.78;5014352;28;20946;-66
2021/09/26 09:40:39;;;;;;;5.03;3.60;;;;;;;21.31;82.50;101325.94;5014548;28;20472;-66
2021/09/26 09:43:07;;;;;;;5.60;3.97;;;;;;;21.41;81.41;101328.16;5014651;28;20505;-66
2021/09/26 09:45:36;;;;;;;6.23;3.97;;;;;;;21.44;80.66;101331.38;5014514;28;20882;-66
2021/09/26 09:48:14;;;;;;;3.93;3.50;;;;;;;21.53;81.56;101334.75;5014459;28;20815;-66
2021/09/26 09:50:50;;;;;;;5.23;3.87;;;;;;;21.63;80.77;101328.69;5014383;28;20474;-66
2021/09/26 09:53:36;;;;;;;5.90;4.27;;;;;;;21.91;77.85;101328.53;5014336;28;20436;-66
2021/09/26 09:56:09;;;;;;;7.40;3.97;;;;;;;22.07;77.95;101317.44;5014337;28;20420;-66
2021/09/26 09:58:40;;;;;;;4.80;3.67;;;;;;;22.23;77.44;101318.22;5014652;28;20455;-66
2021/09/26 10:01:09;;;;;;;3.83;3.33;;;;;;;22.37;77.45;101320.47;5014236;28;20463;-66
2021/09/26 10:03:38;;;;;;;4.60;3.57;;;;;;;22.54;76.93;101322.00;5014214;28;20467;-66
2021/09/26 10:06:20;;;;;;;5.30;4.03;;;;;;;22.72;75.38;101327.88;5014141;28;20444;-66
2021/09/26 10:08:47;;;;;;;6.70;4.20;;;;;;;22.88;74.51;101323.03;5014091;28;20472;-66
2021/09/26 10:11:13;;;;;;;3.83;3.30;;;;;;;22.95;73.84;101322.41;5014073;28;20467;-65
2021/09/26 10:13:41;;;;;;;5.60;4.10;;;;;;;23.14;75.04;101327.88;5013780;28;20451;-64
2021/09/26 10:16:10;;;;;;;5.40;3.70;;;;;;;23.22;74.27;101323.28;5013742;28;20898;-64
2021/09/26 10:18:38;;;;;;;5.47;4.07;;;;;;;23.28;74.32;101322.56;5013962;28;20803;-65
2021/09/26 10:21:07;;;;;;;4.20;3.80;;;;;;;23.46;72.32;101325.63;5013841;28;20486;-65
2021/09/26 10:23:34;;;;;;;8.63;4.43;;;;;;;23.53;72.34;101327.72;5013601;28;20534;-68
2021/09/26 10:26:01;;;;;;;6.60;4.00;;;;;;;23.70;72.83;101320.91;5013883;28;20799;-66
2021/09/26 10:28:31;;;;;;;5.83;3.97;;;;;;;23.76;72.80;101331.25;5012708;28;21004;-66
2021/09/26 10:31:03;;;;;;;4.53;3.77;;;;;;;23.80;72.48;101323.03;5013643;28;20470;-66
2021/09/26 10:33:30;;;;;;;3.60;3.20;;;;;;;23.79;71.34;101319.47;5013533;28;20429;-65
2021/09/26 10:35:58;;;;;;;4.50;3.40;;;;;;;23.80;70.90;101309.97;5013413;28;20464;-66
2021/09/26 10:38:26;;;;;;;4.43;3.97;;;;;;;23.80;69.30;101314.72;5013668;28;20446;-66
2021/09/26 10:40:53;;;;;;;5.17;3.50;;;;;;;23.90;68.73;101309.31;5013495;28;20543;-66
2021/09/26 10:43:24;;;;;;;5.93;3.87;;;;;;;24.06;69.74;101317.47;5013653;28;20444;-66
2021/09/26 10:46:17;;;;;;;4.10;3.30;;;;;;;24.23;68.82;101305.03;5013683;28;20438;-68
2021/09/26 10:49:12;;;;;;;4.50;2.67;;;;;;;24.34;66.99;101305.13;5013530;28;20523;-67
2021/09/26 10:51:48;;;;;;;5.67;3.23;;;;;;;24.47;67.37;101309.28;4968041;28;21005;-67
2021/09/26 10:54:26;;;;;;;3.90;3.50;;;;;;;24.45;65.49;101310.84;5013639;28;20428;-66
2021/09/26 10:57:14;;;;;;;4.83;3.07;;;;;;;24.52;64.19;101305.38;5012786;28;20615;-67
2021/09/26 10:59:42;;;;;;;3.50;3.10;;;;;;;24.66;65.72;101300.81;5012717;28;20471;-67
2021/09/26 11:02:41;;;;;;;4.17;3.33;;;;;;;24.83;64.95;101301.34;5012984;28;20463;-68
2021/09/26 11:05:30;;;;;;;5.03;2.90;;;;;;;25.09;64.36;101300.44;5012993;28;20573;-67
2021/09/26 11:07:57;;;;;;;5.10;2.83;;;;;;;25.48;63.52;101292.44;5012965;28;20428;-67
2021/09/26 11:10:39;;;;;;;3.97;2.80;;;;;;;26.15;61.25;101288.47;5012908;28;20519;-68
2021/09/26 11:13:11;;;;;;;5.50;3.40;;;;;;;26.75;59.30;101287.88;5012584;28;20969;-67
2021/09/26 11:16:10;;;;;;;3.30;3.00;;;;;;;26.82;58.52;101287.88;5012565;28;20444;-67
2021/09/26 11:18:54;;;;;;;3.60;2.80;;;;;;;26.95;58.83;101290.25;5012648;28;20945;-66
2021/09/26 11:21:51;;;;;;;3.07;2.77;;;;;;;27.57;55.95;101282.31;5012877;28;20468;-69
2021/09/26 11:24:31;;;;;;;2.50;2.30;;;;;;;28.41;52.73;101290.00;5012869;28;20448;-68
2021/09/26 11:27:10;;;;;;;4.10;2.60;;;;;;;28.72;50.66;101291.03;5012827;28;20496;-68